sensor_id;sensor_type;location;lat;lon;timestamp;temperature;humidity
7399;DHT22;3740;50.700;7.184;2024-03-02T00:00:06;9.70;99.90
7399;DHT22;3740;50.700;7.184;2024-03-02T00:02:41;9.80;99.90
7399;DHT22;3740;50.700;7.184;2024-03-02T00:05:07;9.80;99.90
7399;DHT22;3740;50.700;7.184;2024-03-02T00:07:33;9.80;99.90
7399;DHT22;3740;50.700;7.184;2024-03-02T00:09:59;9.80;99.90
7399;DHT22;3740;50.700;7.184;2024-03-02T00:12:24;9.80;99.90
7399;DHT22;3740;50.700;7.184;2024-03-02T00:14:51;9.90;99.90
7399;DHT22;3740;50.700;7.184;2024-03-02T00:17:24;9.90;99.90
7399;DHT22;3740;50.700;7.184;2024-03-02T00:19:50;9.90;99.90
7399;DHT22;3740;50.700;7.184;2024-03-02T00:22:16;10.00;99.90
7399;DHT22;3740;50.700;7.184;2024-03-02T00:24:41;10.10;99.90
7399;DHT22;3740;50.700;7.184;2024-03-02T00:27:07;10.10;99.90
7399;DHT22;3740;50.700;7.184;2024-03-02T00:29:36;10.10;99.90
7399;DHT22;3740;50.700;7.184;2024-03-02T00:32:02;10.00;99.90
7399;DHT22;3740;50.700;7.184;2024-03-02T00:34:29;10.10;99.90
7399;DHT22;3740;50.700;7.184;2024-03-02T00:36:57;10.20;99.90
7399;DHT22;3740;50.700;7.184;2024-03-02T00:39:23;10.20;99.90
7399;DHT22;3740;50.700;7.184;2024-03-02T00:41:48;10.20;99.90
7399;DHT22;3740;50.700;7.184;2024-03-02T00:44:15;10.10;99.90
7399;DHT22;3740;50.700;7.184;2024-03-02T00:46:42;10.10;99.90
7399;DHT22;3740;50.700;7.184;2024-03-02T00:49:23;10.10;99.90
7399;DHT22;3740;50.700;7.184;2024-03-02T00:51:51;10.10;99.90
7399;DHT22;3740;50.700;7.184;2024-03-02T00:54:25;10.10;99.90
7399;DHT22;3740;50.700;7.184;2024-03-02T00:56:52;10.20;99.90
7399;DHT22;3740;50.700;7.184;2024-03-02T00:59:20;10.10;99.90
7399;DHT22;3740;50.700;7.184;2024-03-02T01:01:47;10.10;99.90
7399;DHT22;3740;50.700;7.184;2024-03-02T01:04:12;10.10;99.90
7399;DHT22;3740;50.700;7.184;2024-03-02T01:06:39;10.00;99.90
7399;DHT22;3740;50.700;7.184;2024-03-02T01:09:05;10.00;99.90
7399;DHT22;3740;50.700;7.184;2024-03-02T01:11:31;10.00;99.90
7399;DHT22;3740;50.700;7.184;2024-03-02T01:13:56;10.00;99.90
7399;DHT22;3740;50.700;7.184;2024-03-02T01:16:22;10.00;99.90
7399;DHT22;3740;50.700;7.184;2024-03-02T01:18:47;10.00;99.90
7399;DHT22;3740;50.700;7.184;2024-03-02T01:21:14;9.90;99.90
7399;DHT22;3740;50.700;7.184;2024-03-02T01:23:40;9.90;99.90
7399;DHT22;3740;50.700;7.184;2024-03-02T01:26:05;9.90;99.90
7399;DHT22;3740;50.700;7.184;2024-03-02T01:28:31;9.90;99.90
7399;DHT22;3740;50.700;7.184;2024-03-02T01:30:56;9.90;99.90
7399;DHT22;3740;50.700;7.184;2024-03-02T01:33:22;9.90;99.90
7399;DHT22;3740;50.700;7.184;2024-03-02T01:35:47;9.90;99.90
7399;DHT22;3740;50.700;7.184;2024-03-02T01:38:13;9.90;99.90
7399;DHT22;3740;50.700;7.184;2024-03-02T01:40:39;9.80;99.90
7399;DHT22;3740;50.700;7.184;2024-03-02T01:43:05;9.80;99.90
7399;DHT22;3740;50.700;7.184;2024-03-02T01:45:31;9.70;99.90
7399;DHT22;3740;50.700;7.184;2024-03-02T01:47:57;9.70;99.90
7399;DHT22;3740;50.700;7.184;2024-03-02T01:50:31;9.70;99.90
7399;DHT22;3740;50.700;7.184;2024-03-02T01:52:57;9.60;99.90
7399;DHT22;3740;50.700;7.184;2024-03-02T01:55:23;9.70;99.90
7399;DHT22;3740;50.700;7.184;2024-03-02T01:57:49;9.70;99.90
7399;DHT22;3740;50.700;7.184;2024-03-02T02:00:19;9.70;99.90
7399;DHT22;3740;50.700;7.184;2024-03-02T02:02:45;9.60;99.90
7399;DHT22;3740;50.700;7.184;2024-03-02T02:05:11;9.60;99.90
7399;DHT22;3740;50.700;7.184;2024-03-02T02:07:37;9.60;99.90
7399;DHT22;3740;50.700;7.184;2024-03-02T02:10:03;9.60;99.90
7399;DHT22;3740;50.700;7.184;2024-03-02T02:12:29;9.60;99.90
7399;DHT22;3740;50.700;7.184;2024-03-02T02:14:55;9.50;99.90
7399;DHT22;3740;50.700;7.184;2024-03-02T02:17:20;9.50;99.90
7399;DHT22;3740;50.700;7.184;2024-03-02T02:19:46;9.50;99.90
7399;DHT22;3740;50.700;7.184;2024-03-02T02:22:11;9.50;99.90
7399;DHT22;3740;50.700;7.184;2024-03-02T02:24:43;9.50;99.90
7399;DHT22;3740;50.700;7.184;2024-03-02T02:27:09;9.50;99.90
7399;DHT22;3740;50.700;7.184;2024-03-02T02:29:36;9.50;99.90
7399;DHT22;3740;50.700;7.184;2024-03-02T02:32:02;9.40;99.90
7399;DHT22;3740;50.700;7.184;2024-03-02T02:34:27;9.30;99.90
7399;DHT22;3740;50.700;7.184;2024-03-02T02:36:53;9.20;99.90
7399;DHT22;3740;50.700;7.184;2024-03-02T02:39:21;9.20;99.90
7399;DHT22;3740;50.700;7.184;2024-03-02T02:41:48;9.20;99.90
7399;DHT22;3740;50.700;7.184;2024-03-02T02:44:13;9.20;99.90
7399;DHT22;3740;50.700;7.184;2024-03-02T02:46:40;9.20;99.90
7399;DHT22;3740;50.700;7.184;2024-03-02T02:49:05;9.20;99.90
7399;DHT22;3740;50.700;7.184;2024-03-02T02:51:31;9.20;99.90
7399;DHT22;3740;50.700;7.184;2024-03-02T02:53:56;9.20;99.90
7399;DHT22;3740;50.700;7.184;2024-03-02T02:56:22;9.30;99.90
7399;DHT22;3740;50.700;7.184;2024-03-02T02:58:47;9.20;99.90
7399;DHT22;3740;50.700;7.184;2024-03-02T03:01:14;9.10;99.90
7399;DHT22;3740;50.700;7.184;2024-03-02T03:03:40;9.10;99.90
7399;DHT22;3740;50.700;7.184;2024-03-02T03:06:06;9.10;99.90
7399;DHT22;3740;50.700;7.184;2024-03-02T03:08:31;8.90;99.90
7399;DHT22;3740;50.700;7.184;2024-03-02T03:10:57;8.90;99.90
7399;DHT22;3740;50.700;7.184;2024-03-02T03:13:22;8.90;99.90
7399;DHT22;3740;50.700;7.184;2024-03-02T03:15:48;8.90;99.90
7399;DHT22;3740;50.700;7.184;2024-03-02T03:18:13;8.90;99.90
7399;DHT22;3740;50.700;7.184;2024-03-02T03:20:39;9.00;99.90
7399;DHT22;3740;50.700;7.184;2024-03-02T03:23:04;9.00;99.90
7399;DHT22;3740;50.700;7.184;2024-03-02T03:25:30;9.00;99.90
7399;DHT22;3740;50.700;7.184;2024-03-02T03:27:56;9.00;99.90
7399;DHT22;3740;50.700;7.184;2024-03-02T03:30:22;9.10;99.90
7399;DHT22;3740;50.700;7.184;2024-03-02T03:32:48;9.00;99.90
7399;DHT22;3740;50.700;7.184;2024-03-02T03:35:14;9.00;99.90
7399;DHT22;3740;50.700;7.184;2024-03-02T03:37:41;9.00;99.90
7399;DHT22;3740;50.700;7.184;2024-03-02T03:40:07;8.90;99.90
7399;DHT22;3740;50.700;7.184;2024-03-02T03:42:38;9.00;99.90
7399;DHT22;3740;50.700;7.184;2024-03-02T03:45:05;9.00;99.90
7399;DHT22;3740;50.700;7.184;2024-03-02T03:47:34;9.10;99.90
7399;DHT22;3740;50.700;7.184;2024-03-02T03:49:59;9.10;99.90
7399;DHT22;3740;50.700;7.184;2024-03-02T03:52:25;9.20;99.90
7399;DHT22;3740;50.700;7.184;2024-03-02T03:54:51;9.10;99.90
7399;DHT22;3740;50.700;7.184;2024-03-02T03:57:17;9.20;99.90
7399;DHT22;3740;50.700;7.184;2024-03-02T03:59:42;9.20;99.90
7399;DHT22;3740;50.700;7.184;2024-03-02T04:02:08;9.20;99.90
7399;DHT22;3740;50.700;7.184;2024-03-02T04:04:34;9.20;99.90
7399;DHT22;3740;50.700;7.184;2024-03-02T04:07:00;9.20;99.90
7399;DHT22;3740;50.700;7.184;2024-03-02T04:09:26;9.20;99.90
7399;DHT22;3740;50.700;7.184;2024-03-02T04:11:51;9.20;99.90
7399;DHT22;3740;50.700;7.184;2024-03-02T04:14:17;9.10;99.90
7399;DHT22;3740;50.700;7.184;2024-03-02T04:16:43;9.10;99.90
7399;DHT22;3740;50.700;7.184;2024-03-02T04:19:08;9.10;99.90
7399;DHT22;3740;50.700;7.184;2024-03-02T04:21:34;9.00;99.90
7399;DHT22;3740;50.700;7.184;2024-03-02T04:23:59;9.00;99.90
7399;DHT22;3740;50.700;7.184;2024-03-02T04:26:26;9.00;99.90
7399;DHT22;3740;50.700;7.184;2024-03-02T04:28:52;8.90;99.90
7399;DHT22;3740;50.700;7.184;2024-03-02T04:31:18;8.90;99.90
7399;DHT22;3740;50.700;7.184;2024-03-02T04:33:44;8.80;99.90
7399;DHT22;3740;50.700;7.184;2024-03-02T04:36:09;8.80;99.90
7399;DHT22;3740;50.700;7.184;2024-03-02T04:38:35;8.80;99.90
7399;DHT22;3740;50.700;7.184;2024-03-02T04:41:01;8.80;99.90
7399;DHT22;3740;50.700;7.184;2024-03-02T04:43:27;8.80;99.90
7399;DHT22;3740;50.700;7.184;2024-03-02T04:45:52;8.80;99.90
7399;DHT22;3740;50.700;7.184;2024-03-02T04:48:18;8.80;99.90
7399;DHT22;3740;50.700;7.184;2024-03-02T04:50:44;8.80;99.90
7399;DHT22;3740;50.700;7.184;2024-03-02T04:53:10;8.80;99.90
7399;DHT22;3740;50.700;7.184;2024-03-02T04:55:35;8.80;99.90
7399;DHT22;3740;50.700;7.184;2024-03-02T04:58:04;8.80;99.90
7399;DHT22;3740;50.700;7.184;2024-03-02T05:00:30;8.80;99.90
7399;DHT22;3740;50.700;7.184;2024-03-02T05:02:56;8.80;99.90
7399;DHT22;3740;50.700;7.184;2024-03-02T05:05:21;8.80;99.90
7399;DHT22;3740;50.700;7.184;2024-03-02T05:07:47;8.80;99.90
7399;DHT22;3740;50.700;7.184;2024-03-02T05:10:12;8.80;99.90
7399;DHT22;3740;50.700;7.184;2024-03-02T05:12:38;8.80;99.90
7399;DHT22;3740;50.700;7.184;2024-03-02T05:15:14;8.80;99.90
7399;DHT22;3740;50.700;7.184;2024-03-02T05:17:40;8.90;99.90
7399;DHT22;3740;50.700;7.184;2024-03-02T05:20:07;8.90;99.90
7399;DHT22;3740;50.700;7.184;2024-03-02T05:22:33;8.90;99.90
7399;DHT22;3740;50.700;7.184;2024-03-02T05:25:00;9.00;99.90
7399;DHT22;3740;50.700;7.184;2024-03-02T05:27:26;9.00;99.90
7399;DHT22;3740;50.700;7.184;2024-03-02T05:29:52;9.00;99.90
7399;DHT22;3740;50.700;7.184;2024-03-02T05:32:17;9.00;99.90
7399;DHT22;3740;50.700;7.184;2024-03-02T05:34:43;9.00;99.90
7399;DHT22;3740;50.700;7.184;2024-03-02T05:37:09;9.00;99.90
7399;DHT22;3740;50.700;7.184;2024-03-02T05:39:34;9.00;99.90
7399;DHT22;3740;50.700;7.184;2024-03-02T05:42:00;9.00;99.90
7399;DHT22;3740;50.700;7.184;2024-03-02T05:44:25;9.10;99.90
7399;DHT22;3740;50.700;7.184;2024-03-02T05:46:51;9.00;99.90
7399;DHT22;3740;50.700;7.184;2024-03-02T05:49:16;9.00;99.90
7399;DHT22;3740;50.700;7.184;2024-03-02T05:51:42;9.00;99.90
7399;DHT22;3740;50.700;7.184;2024-03-02T05:54:07;8.90;99.90
7399;DHT22;3740;50.700;7.184;2024-03-02T05:56:33;8.90;99.90
7399;DHT22;3740;50.700;7.184;2024-03-02T05:58:58;8.90;99.90
7399;DHT22;3740;50.700;7.184;2024-03-02T06:04:05;8.90;99.90
7399;DHT22;3740;50.700;7.184;2024-03-02T06:06:31;8.90;99.90
7399;DHT22;3740;50.700;7.184;2024-03-02T06:09:01;8.80;99.90
7399;DHT22;3740;50.700;7.184;2024-03-02T06:11:40;8.80;99.90
7399;DHT22;3740;50.700;7.184;2024-03-02T06:14:07;8.60;99.90
7399;DHT22;3740;50.700;7.184;2024-03-02T06:16:33;8.60;99.90
7399;DHT22;3740;50.700;7.184;2024-03-02T06:18:59;8.60;99.90
7399;DHT22;3740;50.700;7.184;2024-03-02T06:21:26;8.60;99.90
7399;DHT22;3740;50.700;7.184;2024-03-02T06:23:51;8.50;99.90
7399;DHT22;3740;50.700;7.184;2024-03-02T06:26:17;8.50;99.90
7399;DHT22;3740;50.700;7.184;2024-03-02T06:28:43;8.50;99.90
7399;DHT22;3740;50.700;7.184;2024-03-02T06:31:09;8.50;99.90
7399;DHT22;3740;50.700;7.184;2024-03-02T06:33:35;8.60;99.90
7399;DHT22;3740;50.700;7.184;2024-03-02T06:36:01;8.60;99.90
7399;DHT22;3740;50.700;7.184;2024-03-02T06:38:26;8.60;99.90
7399;DHT22;3740;50.700;7.184;2024-03-02T06:40:52;8.70;99.90
7399;DHT22;3740;50.700;7.184;2024-03-02T06:43:18;8.70;99.90
7399;DHT22;3740;50.700;7.184;2024-03-02T06:45:43;8.80;99.90
7399;DHT22;3740;50.700;7.184;2024-03-02T06:48:09;8.80;99.90
7399;DHT22;3740;50.700;7.184;2024-03-02T06:50:34;8.80;99.90
7399;DHT22;3740;50.700;7.184;2024-03-02T06:53:00;8.80;99.90
7399;DHT22;3740;50.700;7.184;2024-03-02T06:55:25;8.90;99.90
7399;DHT22;3740;50.700;7.184;2024-03-02T06:57:51;8.90;99.90
7399;DHT22;3740;50.700;7.184;2024-03-02T07:00:17;8.90;99.90
7399;DHT22;3740;50.700;7.184;2024-03-02T07:02:44;8.90;99.90
7399;DHT22;3740;50.700;7.184;2024-03-02T07:05:10;8.90;99.90
7399;DHT22;3740;50.700;7.184;2024-03-02T07:07:37;9.00;99.90
7399;DHT22;3740;50.700;7.184;2024-03-02T07:10:05;9.00;99.90
7399;DHT22;3740;50.700;7.184;2024-03-02T07:12:32;9.00;99.90
7399;DHT22;3740;50.700;7.184;2024-03-02T07:14:58;9.10;99.90
7399;DHT22;3740;50.700;7.184;2024-03-02T07:17:30;9.00;99.90
7399;DHT22;3740;50.700;7.184;2024-03-02T07:19:56;9.00;99.90
7399;DHT22;3740;50.700;7.184;2024-03-02T07:22:22;9.00;99.90
7399;DHT22;3740;50.700;7.184;2024-03-02T07:24:48;9.10;99.90
7399;DHT22;3740;50.700;7.184;2024-03-02T07:27:15;9.00;99.90
7399;DHT22;3740;50.700;7.184;2024-03-02T07:29:40;9.00;99.90
7399;DHT22;3740;50.700;7.184;2024-03-02T07:32:07;8.90;99.90
7399;DHT22;3740;50.700;7.184;2024-03-02T07:34:33;8.90;99.90
7399;DHT22;3740;50.700;7.184;2024-03-02T07:36:58;8.80;99.90
7399;DHT22;3740;50.700;7.184;2024-03-02T07:39:25;8.80;99.90
7399;DHT22;3740;50.700;7.184;2024-03-02T07:41:51;8.90;99.90
7399;DHT22;3740;50.700;7.184;2024-03-02T07:44:16;9.00;99.90
7399;DHT22;3740;50.700;7.184;2024-03-02T07:46:44;9.00;99.90
7399;DHT22;3740;50.700;7.184;2024-03-02T07:49:12;9.10;99.90
7399;DHT22;3740;50.700;7.184;2024-03-02T07:51:39;9.20;99.90
7399;DHT22;3740;50.700;7.184;2024-03-02T07:54:05;9.30;99.90
7399;DHT22;3740;50.700;7.184;2024-03-02T07:56:30;9.30;99.90
7399;DHT22;3740;50.700;7.184;2024-03-02T07:58:56;9.40;99.90
7399;DHT22;3740;50.700;7.184;2024-03-02T08:01:29;9.40;99.90
7399;DHT22;3740;50.700;7.184;2024-03-02T08:03:56;9.40;99.90
7399;DHT22;3740;50.700;7.184;2024-03-02T08:06:26;9.50;99.90
7399;DHT22;3740;50.700;7.184;2024-03-02T08:08:56;9.60;99.90
7399;DHT22;3740;50.700;7.184;2024-03-02T08:11:22;9.60;99.90
7399;DHT22;3740;50.700;7.184;2024-03-02T08:13:48;9.70;99.90
7399;DHT22;3740;50.700;7.184;2024-03-02T08:16:16;9.80;99.90
7399;DHT22;3740;50.700;7.184;2024-03-02T08:18:49;9.90;99.90
7399;DHT22;3740;50.700;7.184;2024-03-02T08:21:15;10.00;99.90
7399;DHT22;3740;50.700;7.184;2024-03-02T08:23:40;10.00;99.90
7399;DHT22;3740;50.700;7.184;2024-03-02T08:26:10;10.10;99.90
7399;DHT22;3740;50.700;7.184;2024-03-02T08:28:36;10.10;99.90
7399;DHT22;3740;50.700;7.184;2024-03-02T08:31:03;10.10;99.90
7399;DHT22;3740;50.700;7.184;2024-03-02T08:33:28;10.20;99.90
7399;DHT22;3740;50.700;7.184;2024-03-02T08:35:54;10.20;99.90
7399;DHT22;3740;50.700;7.184;2024-03-02T08:38:19;10.20;99.90
7399;DHT22;3740;50.700;7.184;2024-03-02T08:40:45;10.30;99.90
7399;DHT22;3740;50.700;7.184;2024-03-02T08:43:11;10.20;99.90
7399;DHT22;3740;50.700;7.184;2024-03-02T08:45:37;10.30;99.90
7399;DHT22;3740;50.700;7.184;2024-03-02T08:48:06;10.30;99.90
7399;DHT22;3740;50.700;7.184;2024-03-02T08:50:31;10.30;99.90
7399;DHT22;3740;50.700;7.184;2024-03-02T08:52:57;10.40;99.90
7399;DHT22;3740;50.700;7.184;2024-03-02T08:55:22;10.50;99.90
7399;DHT22;3740;50.700;7.184;2024-03-02T08:57:48;10.60;99.90
7399;DHT22;3740;50.700;7.184;2024-03-02T09:00:16;10.70;99.90
7399;DHT22;3740;50.700;7.184;2024-03-02T09:02:44;10.80;99.90
7399;DHT22;3740;50.700;7.184;2024-03-02T09:05:10;10.90;99.90
7399;DHT22;3740;50.700;7.184;2024-03-02T09:07:35;11.00;99.90
7399;DHT22;3740;50.700;7.184;2024-03-02T09:10:01;11.10;99.90
7399;DHT22;3740;50.700;7.184;2024-03-02T09:12:26;11.10;99.90
7399;DHT22;3740;50.700;7.184;2024-03-02T09:14:52;11.10;99.90
7399;DHT22;3740;50.700;7.184;2024-03-02T09:17:17;11.10;99.90
7399;DHT22;3740;50.700;7.184;2024-03-02T09:19:43;11.00;99.90
7399;DHT22;3740;50.700;7.184;2024-03-02T09:22:08;11.00;99.90
7399;DHT22;3740;50.700;7.184;2024-03-02T09:24:35;11.10;99.90
7399;DHT22;3740;50.700;7.184;2024-03-02T09:27:00;11.00;99.90
7399;DHT22;3740;50.700;7.184;2024-03-02T09:29:26;11.10;99.90
7399;DHT22;3740;50.700;7.184;2024-03-02T09:31:51;11.20;99.90
7399;DHT22;3740;50.700;7.184;2024-03-02T09:34:17;11.30;99.90
7399;DHT22;3740;50.700;7.184;2024-03-02T09:36:43;11.40;99.90
7399;DHT22;3740;50.700;7.184;2024-03-02T09:39:09;11.40;99.90
7399;DHT22;3740;50.700;7.184;2024-03-02T09:41:38;11.50;99.90
7399;DHT22;3740;50.700;7.184;2024-03-02T09:44:04;11.60;99.90
7399;DHT22;3740;50.700;7.184;2024-03-02T09:46:31;11.60;99.90
7399;DHT22;3740;50.700;7.184;2024-03-02T09:48:56;11.70;99.90
7399;DHT22;3740;50.700;7.184;2024-03-02T09:51:23;11.70;99.90
7399;DHT22;3740;50.700;7.184;2024-03-02T09:53:49;11.70;99.90
7399;DHT22;3740;50.700;7.184;2024-03-02T09:56:15;11.90;99.90
7399;DHT22;3740;50.700;7.184;2024-03-02T09:58:47;12.00;99.90
7399;DHT22;3740;50.700;7.184;2024-03-02T10:01:12;12.10;99.90
7399;DHT22;3740;50.700;7.184;2024-03-02T10:03:38;12.30;99.90
7399;DHT22;3740;50.700;7.184;2024-03-02T10:06:26;12.20;99.90
7399;DHT22;3740;50.700;7.184;2024-03-02T10:08:53;12.30;99.90
7399;DHT22;3740;50.700;7.184;2024-03-02T10:11:32;12.40;99.90
7399;DHT22;3740;50.700;7.184;2024-03-02T10:14:06;12.60;99.90
7399;DHT22;3740;50.700;7.184;2024-03-02T10:16:36;12.60;99.90
7399;DHT22;3740;50.700;7.184;2024-03-02T10:19:22;12.80;99.90
7399;DHT22;3740;50.700;7.184;2024-03-02T10:21:52;12.90;99.90
7399;DHT22;3740;50.700;7.184;2024-03-02T10:24:18;12.90;99.90
7399;DHT22;3740;50.700;7.184;2024-03-02T10:26:44;13.30;99.90
7399;DHT22;3740;50.700;7.184;2024-03-02T10:29:10;13.60;99.90
7399;DHT22;3740;50.700;7.184;2024-03-02T10:31:40;13.80;99.90
7399;DHT22;3740;50.700;7.184;2024-03-02T10:34:10;13.50;99.90
7399;DHT22;3740;50.700;7.184;2024-03-02T10:36:36;13.40;99.90
7399;DHT22;3740;50.700;7.184;2024-03-02T10:39:04;13.90;99.90
7399;DHT22;3740;50.700;7.184;2024-03-02T10:41:33;15.60;99.90
7399;DHT22;3740;50.700;7.184;2024-03-02T10:44:02;17.70;99.90
7399;DHT22;3740;50.700;7.184;2024-03-02T10:46:29;19.70;98.70
7399;DHT22;3740;50.700;7.184;2024-03-02T10:48:56;21.10;94.30
7399;DHT22;3740;50.700;7.184;2024-03-02T10:51:25;21.20;94.00
7399;DHT22;3740;50.700;7.184;2024-03-02T10:53:52;21.10;93.60
7399;DHT22;3740;50.700;7.184;2024-03-02T10:56:28;21.90;90.90
7399;DHT22;3740;50.700;7.184;2024-03-02T11:01:29;22.00;87.80
7399;DHT22;3740;50.700;7.184;2024-03-02T11:03:57;21.60;86.80
7399;DHT22;3740;50.700;7.184;2024-03-02T11:06:23;21.30;89.30
7399;DHT22;3740;50.700;7.184;2024-03-02T11:08:53;20.80;88.60
7399;DHT22;3740;50.700;7.184;2024-03-02T11:11:27;20.30;89.60
7399;DHT22;3740;50.700;7.184;2024-03-02T11:13:57;19.90;90.50
7399;DHT22;3740;50.700;7.184;2024-03-02T11:16:35;19.50;91.20
7399;DHT22;3740;50.700;7.184;2024-03-02T11:19:05;18.90;93.10
7399;DHT22;3740;50.700;7.184;2024-03-02T11:21:35;18.50;93.60
7399;DHT22;3740;50.700;7.184;2024-03-02T11:26:47;16.40;98.00
7399;DHT22;3740;50.700;7.184;2024-03-02T11:32:22;15.80;99.90
7399;DHT22;3740;50.700;7.184;2024-03-02T11:34:50;15.90;99.90
7399;DHT22;3740;50.700;7.184;2024-03-02T11:37:17;16.40;99.90
7399;DHT22;3740;50.700;7.184;2024-03-02T11:39:44;16.60;99.90
7399;DHT22;3740;50.700;7.184;2024-03-02T11:42:11;16.40;99.90
7399;DHT22;3740;50.700;7.184;2024-03-02T11:44:39;17.20;99.90
7399;DHT22;3740;50.700;7.184;2024-03-02T11:47:07;18.20;99.10
7399;DHT22;3740;50.700;7.184;2024-03-02T11:49:51;19.10;97.60
7399;DHT22;3740;50.700;7.184;2024-03-02T11:52:18;20.20;95.40
7399;DHT22;3740;50.700;7.184;2024-03-02T11:54:47;20.70;93.40
7399;DHT22;3740;50.700;7.184;2024-03-02T11:57:15;20.20;92.80
7399;DHT22;3740;50.700;7.184;2024-03-02T11:59:41;19.10;94.00
7399;DHT22;3740;50.700;7.184;2024-03-02T12:02:06;18.40;96.40
7399;DHT22;3740;50.700;7.184;2024-03-02T12:04:38;18.00;97.40
7399;DHT22;3740;50.700;7.184;2024-03-02T12:07:03;17.50;98.90
7399;DHT22;3740;50.700;7.184;2024-03-02T12:09:29;17.10;99.80
7399;DHT22;3740;50.700;7.184;2024-03-02T12:12:09;16.30;99.90
7399;DHT22;3740;50.700;7.184;2024-03-02T12:14:36;15.80;99.90
7399;DHT22;3740;50.700;7.184;2024-03-02T12:17:02;16.00;99.90
7399;DHT22;3740;50.700;7.184;2024-03-02T12:19:29;16.30;99.90
7399;DHT22;3740;50.700;7.184;2024-03-02T12:21:56;16.50;99.90
7399;DHT22;3740;50.700;7.184;2024-03-02T12:24:22;16.70;99.90
7399;DHT22;3740;50.700;7.184;2024-03-02T12:26:51;17.00;99.90
7399;DHT22;3740;50.700;7.184;2024-03-02T12:29:19;17.30;99.90
7399;DHT22;3740;50.700;7.184;2024-03-02T12:31:45;17.60;99.90
7399;DHT22;3740;50.700;7.184;2024-03-02T12:34:13;17.70;99.90
7399;DHT22;3740;50.700;7.184;2024-03-02T12:36:39;17.70;99.90
7399;DHT22;3740;50.700;7.184;2024-03-02T12:39:07;17.70;99.10
7399;DHT22;3740;50.700;7.184;2024-03-02T12:41:36;18.10;99.90
7399;DHT22;3740;50.700;7.184;2024-03-02T12:44:03;19.10;99.40
7399;DHT22;3740;50.700;7.184;2024-03-02T12:46:28;20.00;96.90
7399;DHT22;3740;50.700;7.184;2024-03-02T12:48:54;20.30;94.00
7399;DHT22;3740;50.700;7.184;2024-03-02T12:51:19;21.00;92.40
7399;DHT22;3740;50.700;7.184;2024-03-02T12:53:45;20.40;92.60
7399;DHT22;3740;50.700;7.184;2024-03-02T12:56:11;20.60;94.70
7399;DHT22;3740;50.700;7.184;2024-03-02T12:58:40;20.90;92.50
7399;DHT22;3740;50.700;7.184;2024-03-02T13:01:09;20.50;91.40
7399;DHT22;3740;50.700;7.184;2024-03-02T13:03:37;20.20;92.90
7399;DHT22;3740;50.700;7.184;2024-03-02T13:06:04;20.00;93.30
7399;DHT22;3740;50.700;7.184;2024-03-02T13:08:30;19.60;94.30
7399;DHT22;3740;50.700;7.184;2024-03-02T13:10:55;19.30;94.90
7399;DHT22;3740;50.700;7.184;2024-03-02T13:13:21;19.00;94.40
7399;DHT22;3740;50.700;7.184;2024-03-02T13:15:48;18.60;94.90
7399;DHT22;3740;50.700;7.184;2024-03-02T13:18:14;18.30;95.90
7399;DHT22;3740;50.700;7.184;2024-03-02T13:20:39;18.30;96.50
7399;DHT22;3740;50.700;7.184;2024-03-02T13:23:05;17.70;96.90
7399;DHT22;3740;50.700;7.184;2024-03-02T13:25:31;17.70;99.60
7399;DHT22;3740;50.700;7.184;2024-03-02T13:27:57;17.80;99.90
7399;DHT22;3740;50.700;7.184;2024-03-02T13:30:23;17.90;99.30
7399;DHT22;3740;50.700;7.184;2024-03-02T13:32:49;17.80;97.90
7399;DHT22;3740;50.700;7.184;2024-03-02T13:35:14;17.90;99.30
7399;DHT22;3740;50.700;7.184;2024-03-02T13:37:40;18.00;95.60
7399;DHT22;3740;50.700;7.184;2024-03-02T13:40:06;17.70;96.40
7399;DHT22;3740;50.700;7.184;2024-03-02T13:42:32;17.20;97.50
7399;DHT22;3740;50.700;7.184;2024-03-02T13:44:57;17.00;99.20
7399;DHT22;3740;50.700;7.184;2024-03-02T13:47:23;17.10;99.90
7399;DHT22;3740;50.700;7.184;2024-03-02T13:49:48;17.10;97.80
7399;DHT22;3740;50.700;7.184;2024-03-02T13:52:15;17.20;98.90
7399;DHT22;3740;50.700;7.184;2024-03-02T13:54:43;17.10;99.10
7399;DHT22;3740;50.700;7.184;2024-03-02T13:57:10;16.90;99.50
7399;DHT22;3740;50.700;7.184;2024-03-02T13:59:36;17.10;99.90
7399;DHT22;3740;50.700;7.184;2024-03-02T14:02:02;17.20;99.80
7399;DHT22;3740;50.700;7.184;2024-03-02T14:04:32;17.60;97.80
7399;DHT22;3740;50.700;7.184;2024-03-02T14:06:58;17.80;98.30
7399;DHT22;3740;50.700;7.184;2024-03-02T14:09:24;18.00;96.70
7399;DHT22;3740;50.700;7.184;2024-03-02T14:11:50;17.90;96.30
7399;DHT22;3740;50.700;7.184;2024-03-02T14:14:19;18.10;98.70
7399;DHT22;3740;50.700;7.184;2024-03-02T14:16:44;18.30;99.80
7399;DHT22;3740;50.700;7.184;2024-03-02T14:19:13;18.00;96.90
7399;DHT22;3740;50.700;7.184;2024-03-02T14:21:39;17.60;96.90
7399;DHT22;3740;50.700;7.184;2024-03-02T14:24:05;17.00;97.60
7399;DHT22;3740;50.700;7.184;2024-03-02T14:26:33;16.70;98.40
7399;DHT22;3740;50.700;7.184;2024-03-02T14:28:59;16.50;99.00
7399;DHT22;3740;50.700;7.184;2024-03-02T14:31:27;16.30;99.40
7399;DHT22;3740;50.700;7.184;2024-03-02T14:33:53;16.20;99.90
7399;DHT22;3740;50.700;7.184;2024-03-02T14:36:19;15.90;99.90
7399;DHT22;3740;50.700;7.184;2024-03-02T14:38:45;15.90;99.90
7399;DHT22;3740;50.700;7.184;2024-03-02T14:41:11;15.80;99.90
7399;DHT22;3740;50.700;7.184;2024-03-02T14:43:36;15.70;99.90
7399;DHT22;3740;50.700;7.184;2024-03-02T14:46:03;15.70;99.90
7399;DHT22;3740;50.700;7.184;2024-03-02T14:48:29;15.60;99.90
7399;DHT22;3740;50.700;7.184;2024-03-02T14:50:54;15.50;99.90
7399;DHT22;3740;50.700;7.184;2024-03-02T14:53:20;15.60;99.90
7399;DHT22;3740;50.700;7.184;2024-03-02T14:55:46;15.50;99.90
7399;DHT22;3740;50.700;7.184;2024-03-02T14:58:11;15.40;99.90
7399;DHT22;3740;50.700;7.184;2024-03-02T15:00:37;15.40;99.90
7399;DHT22;3740;50.700;7.184;2024-03-02T15:03:03;15.30;99.90
7399;DHT22;3740;50.700;7.184;2024-03-02T15:05:31;15.20;99.90
7399;DHT22;3740;50.700;7.184;2024-03-02T15:07:56;15.20;99.90
7399;DHT22;3740;50.700;7.184;2024-03-02T15:10:24;15.20;99.90
7399;DHT22;3740;50.700;7.184;2024-03-02T15:12:50;15.30;99.90
7399;DHT22;3740;50.700;7.184;2024-03-02T15:15:16;15.30;99.90
7399;DHT22;3740;50.700;7.184;2024-03-02T15:17:41;15.20;99.90
7399;DHT22;3740;50.700;7.184;2024-03-02T15:20:07;15.20;99.90
7399;DHT22;3740;50.700;7.184;2024-03-02T15:22:33;15.10;99.90
7399;DHT22;3740;50.700;7.184;2024-03-02T15:24:59;15.10;99.90
7399;DHT22;3740;50.700;7.184;2024-03-02T15:27:24;15.00;99.90
7399;DHT22;3740;50.700;7.184;2024-03-02T15:29:52;15.00;99.90
7399;DHT22;3740;50.700;7.184;2024-03-02T15:32:18;15.10;99.90
7399;DHT22;3740;50.700;7.184;2024-03-02T15:34:44;15.10;99.90
7399;DHT22;3740;50.700;7.184;2024-03-02T15:37:09;15.10;99.90
7399;DHT22;3740;50.700;7.184;2024-03-02T15:39:35;15.10;99.90
7399;DHT22;3740;50.700;7.184;2024-03-02T15:42:00;15.10;99.90
7399;DHT22;3740;50.700;7.184;2024-03-02T15:44:27;15.10;99.90
7399;DHT22;3740;50.700;7.184;2024-03-02T15:46:52;15.10;99.90
7399;DHT22;3740;50.700;7.184;2024-03-02T15:49:18;15.00;99.90
7399;DHT22;3740;50.700;7.184;2024-03-02T15:51:43;14.90;99.90
7399;DHT22;3740;50.700;7.184;2024-03-02T15:54:10;14.90;99.90
7399;DHT22;3740;50.700;7.184;2024-03-02T15:56:36;14.90;99.90
7399;DHT22;3740;50.700;7.184;2024-03-02T15:59:02;14.90;99.90
7399;DHT22;3740;50.700;7.184;2024-03-02T16:01:30;15.00;99.90
7399;DHT22;3740;50.700;7.184;2024-03-02T16:03:56;15.00;99.90
7399;DHT22;3740;50.700;7.184;2024-03-02T16:06:22;14.90;99.90
7399;DHT22;3740;50.700;7.184;2024-03-02T16:08:47;14.90;99.90
7399;DHT22;3740;50.700;7.184;2024-03-02T16:11:13;15.00;99.90
7399;DHT22;3740;50.700;7.184;2024-03-02T16:13:38;14.90;99.90
7399;DHT22;3740;50.700;7.184;2024-03-02T16:16:04;14.90;99.90